Time;durP1;ratioP1;P1;durP2;ratioP2;P2;SDS_P1;SDS_P2;PMS_P1;PMS_P2;Temp;Humidity;BMP_temperature;BMP_pressure;BME280_temperature;BME280_humidity;BME280_pressure;Samples;Min_cycle;Max_cycle;Signal;HPM_P1;HPM_P2
2023/03/21 00:04:19;;;;;;;3.65;1.60;;;;;;;19.15;41.00;101607.94;16120682;19;134866;-39
2023/03/21 00:09:41;;;;;;;4.55;1.50;;;;;;;19.12;41.08;101590.94;16117343;19;129422;-38
2023/03/21 00:15:08;;;;;;;4.85;1.70;;;;;;;19.12;41.20;101596.47;16116316;19;130068;-38
2023/03/21 00:20:33;;;;;;;3.60;1.20;;;;;;;19.08;40.96;101582.22;16117454;19;131500;-38
2023/03/21 00:25:55;;;;;;;5.80;1.67;;;;;;;19.06;41.39;101585.25;16119892;19;129730;-39
2023/03/21 00:31:17;;;;;;;5.40;1.60;;;;;;;19.02;40.99;101570.16;16116669;19;131115;-38
2023/03/21 00:36:39;;;;;;;3.03;1.50;;;;;;;19.01;41.36;101564.84;16113167;19;130236;-38
2023/03/21 00:42:01;;;;;;;5.95;1.63;;;;;;;18.98;41.21;101566.13;16113837;19;134896;-38
2023/03/21 00:47:22;;;;;;;8.02;1.42;;;;;;;18.97;41.08;101558.91;16111624;19;129653;-38
2023/03/21 00:52:46;;;;;;;4.38;1.58;;;;;;;18.96;40.93;101548.88;16114024;19;130213;-38
2023/03/21 00:58:08;;;;;;;2.00;1.25;;;;;;;18.93;41.04;101543.81;16116208;19;131646;-41
2023/03/21 01:03:30;;;;;;;4.43;1.63;;;;;;;18.91;41.21;101537.66;16116793;19;129747;-39
2023/03/21 01:08:52;;;;;;;3.53;1.25;;;;;;;18.90;41.13;101527.66;16116593;19;129548;-38
2023/03/21 01:14:16;;;;;;;5.60;1.27;;;;;;;18.88;41.36;101519.56;16118147;19;130355;-38
2023/03/21 01:19:45;;;;;;;4.30;1.48;;;;;;;18.86;41.03;101516.19;16108944;19;129662;-38
2023/03/21 01:25:12;;;;;;;4.15;1.38;;;;;;;18.85;41.00;101516.41;16115958;19;130072;-38
2023/03/21 01:30:50;;;;;;;3.17;1.23;;;;;;;18.85;41.29;101499.78;16113763;19;130494;-38
2023/03/21 01:36:21;;;;;;;7.70;1.58;;;;;;;18.82;41.19;101486.41;16116693;19;131536;-38
2023/03/21 01:41:44;;;;;;;1.95;1.00;;;;;;;18.79;40.83;101484.09;16114763;19;131153;-39
2023/03/21 01:47:06;;;;;;;2.08;1.10;;;;;;;18.77;41.20;101481.53;16113640;19;130163;-39
2023/03/21 01:52:37;;;;;;;2.38;1.02;;;;;;;18.76;41.26;101477.94;16109488;19;130727;-39
2023/03/21 01:58:02;;;;;;;4.63;1.35;;;;;;;18.75;40.72;101467.09;16115155;19;130460;-38
2023/03/21 02:03:36;;;;;;;4.78;1.05;;;;;;;18.74;41.00;101469.00;16112034;19;131412;-38
2023/03/21 02:09:03;;;;;;;2.05;1.10;;;;;;;18.72;40.67;101462.84;16114728;19;131344;-39
2023/03/21 02:14:25;;;;;;;4.07;1.27;;;;;;;18.71;40.74;101454.75;16119546;19;129699;-38
2023/03/21 02:20:10;;;;;;;2.60;1.00;;;;;;;18.69;40.81;101438.38;16107791;19;131888;-38
2023/03/21 02:25:56;;;;;;;3.40;1.20;;;;;;;18.68;40.62;101433.91;16111873;19;129700;-38
2023/03/21 02:31:23;;;;;;;1.73;1.00;;;;;;;18.66;40.88;101433.31;16113075;19;129992;-39
2023/03/21 02:36:56;;;;;;;2.88;1.40;;;;;;;18.65;40.57;101422.44;16111725;19;130672;-44
2023/03/21 02:42:41;;;;;;;5.68;1.35;;;;;;;18.63;40.69;101414.34;16113728;19;129756;-40
2023/03/21 02:48:12;;;;;;;2.80;1.38;;;;;;;18.61;40.85;101410.97;16104695;19;130875;-44
2023/03/21 02:53:57;;;;;;;3.47;1.33;;;;;;;18.60;40.83;101409.28;16112621;19;130842;-44
2023/03/21 02:59:39;;;;;;;2.53;1.20;;;;;;;18.58;40.54;101405.91;16108806;19;133665;-46
2023/03/21 03:05:29;;;;;;;4.40;1.50;;;;;;;18.58;40.58;101406.75;16117462;19;130220;-46
2023/03/21 03:11:15;;;;;;;3.60;1.20;;;;;;;18.57;40.82;101407.84;16124473;19;131286;-45
2023/03/21 03:16:58;;;;;;;3.33;1.23;;;;;;;18.55;40.43;101403.63;16117359;19;131550;-45
2023/03/21 03:22:29;;;;;;;3.28;1.35;;;;;;;18.53;40.40;101401.06;16125589;19;130904;-47
2023/03/21 03:27:55;;;;;;;2.40;1.17;;;;;;;18.53;40.54;101386.38;16126585;19;130217;-41
2023/03/21 03:33:22;;;;;;;4.25;1.10;;;;;;;18.51;40.51;101385.75;16122855;19;129746;-45
2023/03/21 03:38:47;;;;;;;3.03;1.15;;;;;;;18.49;40.82;101376.81;16120120;19;130517;-43
2023/03/21 03:44:09;;;;;;;1.97;1.00;;;;;;;18.49;40.46;101386.00;16120978;19;130147;-44
2023/03/21 03:49:38;;;;;;;1.85;1.17;;;;;;;18.48;40.31;101372.38;16119933;19;129380;-48
2023/03/21 03:55:00;;;;;;;4.32;1.20;;;;;;;18.46;40.72;101373.44;16120214;19;129842;-47
2023/03/21 04:00:22;;;;;;;2.10;1.20;;;;;;;18.46;40.45;101376.22;16110612;19;129619;-46
2023/03/21 04:05:47;;;;;;;1.83;1.05;;;;;;;18.44;40.68;101367.31;16114658;19;129530;-45
2023/03/21 04:11:11;;;;;;;4.37;1.40;;;;;;;18.43;40.59;101371.16;16121600;19;130555;-45
2023/03/21 04:16:33;;;;;;;3.15;1.27;;;;;;;18.42;40.31;101363.94;16119253;19;133566;-50
2023/03/21 04:21:56;;;;;;;2.90;1.08;;;;;;;18.42;40.27;101360.28;16124625;19;130187;-45
2023/03/21 04:27:18;;;;;;;3.33;1.20;;;;;;;18.40;40.42;101349.47;16119807;19;130166;-46
2023/03/21 04:32:40;;;;;;;3.08;1.30;;;;;;;18.42;40.23;101351.97;16115614;19;130213;-39
2023/03/21 04:38:02;;;;;;;3.03;1.30;;;;;;;18.38;40.25;101342.44;16116741;19;129985;-39
2023/03/21 04:43:23;;;;;;;3.03;0.80;;;;;;;18.37;40.27;101344.34;16123036;19;130103;-39
2023/03/21 04:48:46;;;;;;;3.08;1.35;;;;;;;18.36;40.34;101337.13;16118089;19;129024;-40
2023/03/21 04:54:07;;;;;;;2.72;0.98;;;;;;;18.37;40.20;101336.03;16118477;19;129403;-38
2023/03/21 04:59:32;;;;;;;1.03;0.80;;;;;;;18.36;40.36;101337.13;16118813;19;130748;-39
2023/03/21 05:04:56;;;;;;;2.00;0.90;;;;;;;18.34;40.09;101336.50;16119262;19;129955;-41
2023/03/21 05:10:18;;;;;;;4.45;1.15;;;;;;;18.33;40.11;101336.75;16118868;19;130785;-40
2023/03/21 05:15:39;;;;;;;3.88;1.23;;;;;;;18.32;40.23;101335.91;16113733;19;129315;-39
2023/03/21 05:21:03;;;;;;;2.83;1.15;;;;;;;18.32;40.46;101324.84;16117144;19;129313;-46
2023/03/21 05:26:24;;;;;;;3.13;1.02;;;;;;;18.31;40.35;101328.69;16113499;19;130926;-41
2023/03/21 05:31:46;;;;;;;1.90;1.10;;;;;;;18.29;40.38;101334.44;16111947;19;130034;-38
2023/03/21 05:37:08;;;;;;;1.98;1.05;;;;;;;18.28;40.29;101326.38;16113934;19;130328;-39
2023/03/21 05:42:30;;;;;;;3.30;1.40;;;;;;;18.28;40.04;101329.16;16112223;19;129389;-39
2023/03/21 05:47:51;;;;;;;2.60;1.40;;;;;;;18.27;39.97;101330.22;16115735;19;130561;-39
2023/03/21 05:53:13;;;;;;;3.33;1.30;;;;;;;18.25;39.96;101330.47;16113531;19;131333;-42
2023/03/21 05:58:35;;;;;;;2.13;0.85;;;;;;;18.25;40.00;101324.94;16114226;19;129867;-39
2023/03/21 06:03:56;;;;;;;2.50;1.15;;;;;;;18.25;39.97;101313.84;16113876;19;129607;-39
2023/03/21 06:09:19;;;;;;;3.72;1.20;;;;;;;18.33;39.97;101326.53;16114610;19;132049;-39
2023/03/21 06:14:41;;;;;;;5.97;1.27;;;;;;;18.68;39.60;101325.84;16113166;19;130638;-39
2023/03/21 06:20:05;;;;;;;13.35;2.13;;;;;;;18.94;39.37;101337.59;16110927;19;130317;-39
2023/03/21 06:25:27;;;;;;;5.80;1.30;;;;;;;19.12;39.09;101338.53;16112250;19;129132;-39
2023/03/21 06:30:49;;;;;;;7.32;1.38;;;;;;;19.24;38.71;101342.22;16112212;19;129340;-39
2023/03/21 06:36:11;;;;;;;12.23;1.50;;;;;;;19.27;38.84;101346.41;16109276;19;131396;-39
2023/03/21 06:41:33;;;;;;;9.23;2.13;;;;;;;19.29;38.69;101355.34;16122690;19;131183;-41
2023/03/21 06:46:55;;;;;;;10.65;1.30;;;;;;;19.24;38.55;101346.94;16130006;19;129444;-43
2023/03/21 06:52:16;;;;;;;8.60;1.73;;;;;;;19.20;38.63;101355.69;16124634;19;129402;-44
2023/03/21 06:57:38;;;;;;;5.93;1.90;;;;;;;19.14;38.56;101341.94;16123200;19;135010;-41
2023/03/21 07:03:00;;;;;;;6.32;1.50;;;;;;;19.07;38.43;101334.59;16117854;19;130579;-52
2023/03/21 07:08:22;;;;;;;7.50;1.50;;;;;;;19.01;38.97;101341.06;16124637;19;130968;-44
2023/03/21 07:13:44;;;;;;;6.72;1.35;;;;;;;18.96;38.68;101352.03;16123365;19;130813;-44
2023/03/21 07:19:06;;;;;;;6.35;1.70;;;;;;;18.90;38.94;101344.66;16127782;19;130770;-40
2023/03/21 07:24:28;;;;;;;6.65;1.60;;;;;;;18.83;39.04;101341.19;16124068;19;130750;-42
2023/03/21 07:29:50;;;;;;;17.17;1.77;;;;;;;18.76;39.07;101335.72;16127643;19;129869;-40
2023/03/21 07:35:13;;;;;;;13.85;1.90;;;;;;;18.68;38.87;101328.59;16126508;19;129394;-45
2023/03/21 07:40:35;;;;;;;8.48;1.73;;;;;;;18.66;38.97;101319.69;16124979;19;129392;-43
2023/03/21 07:45:58;;;;;;;6.05;2.20;;;;;;;18.72;39.07;101317.88;16124695;19;129864;-41
2023/03/21 07:51:20;;;;;;;6.75;1.45;;;;;;;18.82;39.15;101311.75;16122949;19;130164;-42
2023/03/21 07:56:41;;;;;;;7.88;2.00;;;;;;;18.91;38.60;101304.78;16127875;19;129613;-41
2023/03/21 08:02:03;;;;;;;9.90;1.88;;;;;;;19.02;38.90;101295.63;16123691;19;132058;-43
2023/03/21 08:07:26;;;;;;;7.05;1.20;;;;;;;19.10;38.76;101293.56;16119298;19;130182;-43
2023/03/21 08:12:48;;;;;;;6.30;1.50;;;;;;;19.17;38.61;101295.13;16123171;19;130354;-41
2023/03/21 08:18:10;;;;;;;4.78;1.35;;;;;;;19.23;38.37;101290.59;16123157;19;129195;-42
2023/03/21 08:23:33;;;;;;;8.30;1.50;;;;;;;19.41;38.29;101283.22;16121291;19;130078;-46
2023/03/21 08:28:55;;;;;;;6.47;1.92;;;;;;;19.76;37.83;101285.09;16121943;19;130446;-44
2023/03/21 08:34:16;;;;;;;4.57;1.35;;;;;;;20.02;37.89;101269.81;16121040;19;130843;-47
2023/03/21 08:39:38;;;;;;;5.53;1.50;;;;;;;20.27;37.01;101261.16;16119306;19;134089;-44
2023/03/21 08:45:00;;;;;;;5.78;1.42;;;;;;;20.48;37.24;101267.06;16123056;19;129361;-44
2023/03/21 08:50:25;;;;;;;9.52;1.50;;;;;;;20.64;36.96;101270.13;16118885;19;129068;-47
2023/03/21 08:55:48;;;;;;;3.80;1.30;;;;;;;20.74;36.64;101261.94;16121978;19;130448;-46
2023/03/21 09:01:14;;;;;;;7.60;1.40;;;;;;;20.75;36.58;101266.41;16121084;19;130232;-41
2023/03/21 09:06:39;;;;;;;4.53;1.10;;;;;;;20.71;36.32;101254.09;16120237;19;130907;-40
2023/03/21 09:12:01;;;;;;;6.88;1.55;;;;;;;20.62;36.74;101250.06;16110451;19;131555;-40
2023/03/21 09:17:23;;;;;;;6.28;1.63;;;;;;;20.51;36.58;101249.91;16117916;19;129882;-40
2023/03/21 09:22:50;;;;;;;8.98;1.75;;;;;;;20.44;36.68;101241.72;16113566;19;130604;-40
2023/03/21 09:28:13;;;;;;;8.13;1.60;;;;;;;20.36;36.68;101235.72;16119386;19;130373;-42
2023/03/21 09:33:35;;;;;;;6.07;1.23;;;;;;;20.27;36.81;101227.81;16117334;19;130922;-39
2023/03/21 09:38:56;;;;;;;8.77;1.60;;;;;;;20.16;37.39;101228.72;16116186;19;129007;-39
2023/03/21 09:44:43;;;;;;;6.38;1.40;;;;;;;20.09;37.39;101226.09;16118100;19;132769;-40
2023/03/21 09:50:20;;;;;;;;;;;;;;;19.95;37.64;101230.22;16119794;19;129357;-39
2023/03/21 09:55:43;;;;;;;8.20;1.80;;;;;;;19.89;37.38;101234.84;16117644;19;130369;-39
2023/03/21 10:01:28;;;;;;;5.30;1.40;;;;;;;19.83;37.65;101242.22;16114976;19;130679;-39
2023/03/21 10:06:58;;;;;;;6.35;1.33;;;;;;;19.78;37.94;101238.50;16115481;19;129628;-40
2023/03/21 10:12:21;;;;;;;4.32;1.23;;;;;;;19.71;37.71;101232.22;16112338;19;129549;-39
2023/03/21 10:17:51;;;;;;;3.60;1.20;;;;;;;19.68;38.07;101226.13;16114940;19;130002;-40
2023/03/21 10:23:16;;;;;;;5.43;1.45;;;;;;;19.64;38.01;101224.91;16111962;19;132810;-40
2023/03/21 10:28:40;;;;;;;6.03;1.40;;;;;;;19.58;38.08;101214.78;16113633;19;133498;-41
2023/03/21 10:34:28;;;;;;;3.47;1.30;;;;;;;19.57;38.13;101213.09;16113921;19;133692;-41
2023/03/21 10:39:53;;;;;;;4.97;1.33;;;;;;;19.53;38.44;101200.81;16110690;19;130537;-43
2023/03/21 10:45:19;;;;;;;5.25;1.42;;;;;;;19.50;38.41;101201.28;16111494;19;130597;-41
2023/03/21 10:50:45;;;;;;;9.38;1.65;;;;;;;19.48;38.96;101203.47;16111305;19;130817;-41
2023/03/21 10:56:09;;;;;;;8.95;1.95;;;;;;;19.45;39.07;101193.72;16111839;19;129614;-41
2023/03/21 11:01:39;;;;;;;11.85;1.60;;;;;;;19.46;39.94;101198.19;16110217;19;129367;-39
2023/03/21 11:07:08;;;;;;;5.90;1.35;;;;;;;19.46;39.94;101214.81;16110233;19;131591;-41
2023/03/21 11:12:39;;;;;;;14.43;1.77;;;;;;;19.49;39.95;101224.56;16110590;19;129760;-40
2023/03/21 11:18:20;;;;;;;4.35;1.60;;;;;;;19.51;40.93;101219.63;16109686;19;129509;-40
2023/03/21 11:23:48;;;;;;;4.85;1.45;;;;;;;19.65;41.52;101209.94;16110142;19;129631;-41
2023/03/21 11:29:26;;;;;;;7.10;1.73;;;;;;;19.96;41.91;101215.25;16123795;19;129082;-40
2023/03/21 11:34:58;;;;;;;6.60;1.80;;;;;;;20.22;41.79;101205.47;16120393;19;130322;-41
2023/03/21 11:40:26;;;;;;;10.82;1.70;;;;;;;20.46;41.47;101199.78;16125358;19;129649;-42
2023/03/21 11:45:58;;;;;;;8.48;1.67;;;;;;;20.67;41.53;101198.19;16123365;19;129525;-43
2023/03/21 11:51:40;;;;;;;3.65;1.33;;;;;;;20.79;41.40;101195.34;16125349;19;131633;-40
2023/03/21 11:57:50;;;;;;;8.02;1.63;;;;;;;20.79;42.06;101189.78;16123959;19;129456;-40
2023/03/21 12:03:45;;;;;;;4.45;1.40;;;;;;;20.78;41.92;101182.53;16114849;19;129550;-40
2023/03/21 12:09:30;;;;;;;8.55;1.73;;;;;;;20.74;42.19;101165.47;16116217;19;131273;-40
2023/03/21 12:15:12;;;;;;;8.07;1.65;;;;;;;20.72;42.18;101164.91;16114482;19;129696;-41
2023/03/21 12:20:40;;;;;;;5.63;1.40;;;;;;;20.66;42.57;101151.19;16113907;19;130841;-41
2023/03/21 12:26:02;;;;;;;6.78;1.80;;;;;;;20.60;42.68;101145.53;16108895;19;131530;-40
2023/03/21 12:31:42;;;;;;;6.88;1.27;;;;;;;20.54;43.17;101154.91;16109877;19;130555;-40
2023/03/21 12:37:10;;;;;;;4.60;1.27;;;;;;;20.45;42.83;101151.69;16116243;19;129163;-41
2023/03/21 12:42:51;;;;;;;4.63;1.63;;;;;;;20.38;43.08;101148.22;16116585;19;130890;-44
2023/03/21 12:48:26;;;;;;;8.10;1.92;;;;;;;20.31;43.48;101147.56;16118515;19;131363;-40
2023/03/21 12:53:55;;;;;;;4.07;1.30;;;;;;;20.23;43.52;101150.78;16119377;19;131038;-41
2023/03/21 12:59:37;;;;;;;6.80;1.30;;;;;;;20.16;43.58;101136.19;16122478;19;131552;-42
2023/03/21 13:05:26;;;;;;;4.60;1.50;;;;;;;20.10;43.50;101138.03;16118266;19;135777;-40
2023/03/21 13:10:48;;;;;;;5.55;1.60;;;;;;;20.01;43.76;101134.00;16116295;19;131435;-40
2023/03/21 13:16:12;;;;;;;3.92;1.60;;;;;;;19.97;43.43;101130.84;16116691;19;129167;-41
2023/03/21 13:21:40;;;;;;;5.90;1.27;;;;;;;19.94;43.47;101118.28;16117901;19;129839;-41
2023/03/21 13:27:05;;;;;;;4.32;1.40;;;;;;;19.90;43.47;101117.13;16111052;19;131736;-42
2023/03/21 13:32:39;;;;;;;3.30;1.38;;;;;;;19.88;43.64;101118.50;16107151;19;130422;-43
2023/03/21 13:38:07;;;;;;;5.70;1.40;;;;;;;19.83;43.33;101111.75;16112012;19;130926;-43
2023/03/21 13:43:43;;;;;;;6.55;1.50;;;;;;;19.80;43.57;101101.13;16113947;19;129101;-41
2023/03/21 13:49:07;;;;;;;5.83;1.27;;;;;;;19.77;43.46;101095.25;16115706;19;130297;-42
2023/03/21 13:54:55;;;;;;;17.17;1.80;;;;;;;19.75;43.45;101101.06;16114645;19;129926;-43
2023/03/21 14:00:28;;;;;;;4.03;1.50;;;;;;;19.73;43.52;101094.03;16113606;19;129331;-42
2023/03/21 14:05:50;;;;;;;3.08;1.10;;;;;;;19.75;43.36;101089.09;16113599;19;131645;-40
2023/03/21 14:11:17;;;;;;;5.63;1.35;;;;;;;19.82;43.44;101086.97;16113324;19;129772;-41
2023/03/21 14:16:40;;;;;;;4.18;1.17;;;;;;;19.89;43.66;101084.03;16111380;19;130895;-40
2023/03/21 14:22:02;;;;;;;2.42;1.20;;;;;;;19.98;43.56;101074.22;16112651;19;129454;-41
2023/03/21 14:27:30;;;;;;;3.22;1.10;;;;;;;20.07;43.26;101071.88;16113084;19;130768;-45
2023/03/21 14:32:58;;;;;;;6.65;1.48;;;;;;;20.08;42.22;101068.88;16112143;19;129696;-45
2023/03/21 14:38:26;;;;;;;3.67;1.30;;;;;;;20.10;42.31;101068.59;16113912;19;129143;-41
2023/03/21 14:44:12;;;;;;;5.78;1.65;;;;;;;20.10;41.63;101074.16;16112069;19;131192;-42
2023/03/21 14:49:36;;;;;;;5.53;1.30;;;;;;;20.13;41.94;101071.72;16113723;19;129720;-42
2023/03/21 14:54:59;;;;;;;3.22;1.05;;;;;;;20.16;42.47;101075.94;16111928;19;130335;-42
2023/03/21 15:00:25;;;;;;;6.47;1.70;;;;;;;20.23;42.38;101081.31;16119407;19;128859;-44
2023/03/21 15:05:47;;;;;;;2.80;1.05;;;;;;;20.30;42.39;101073.66;16124666;19;129546;-40
2023/03/21 15:11:11;;;;;;;4.70;1.08;;;;;;;20.38;42.49;101075.16;16129897;19;130183;-41
2023/03/21 15:16:35;;;;;;;2.60;0.80;;;;;;;20.43;42.48;101067.75;16127912;19;130645;-41
2023/03/21 15:22:04;;;;;;;3.67;0.98;;;;;;;20.47;42.19;101054.16;16124317;19;130530;-42
2023/03/21 15:27:31;;;;;;;2.00;0.80;;;;;;;20.49;42.16;101063.09;16128560;19;129695;-40
2023/03/21 15:32:58;;;;;;;2.55;0.82;;;;;;;20.49;42.44;101063.09;16126181;19;132309;-45
2023/03/21 15:38:35;;;;;;;3.17;1.13;;;;;;;20.44;42.58;101054.66;16121045;19;130230;-41
2023/03/21 15:44:08;;;;;;;2.15;0.95;;;;;;;20.36;42.66;101057.91;16122735;19;129573;-42
2023/03/21 15:49:33;;;;;;;3.38;1.13;;;;;;;20.26;42.36;101061.34;16117365;19;131561;-42
2023/03/21 15:54:55;;;;;;;3.60;1.08;;;;;;;20.17;42.83;101069.28;16123475;19;129533;-41
2023/03/21 16:00:21;;;;;;;4.05;1.10;;;;;;;20.09;42.66;101086.38;16121749;19;130678;-41
2023/03/21 16:06:04;;;;;;;1.48;0.75;;;;;;;20.02;42.66;101092.09;16119330;19;130265;-42
2023/03/21 16:11:27;;;;;;;1.95;1.00;;;;;;;19.93;42.54;101097.22;16122391;19;130085;-42
2023/03/21 16:16:50;;;;;;;2.53;1.25;;;;;;;19.85;42.84;101092.03;16121576;19;130960;-41
2023/03/21 16:22:12;;;;;;;1.80;1.00;;;;;;;19.78;42.92;101099.69;16120405;19;129710;-43
2023/03/21 16:27:33;;;;;;;3.55;0.82;;;;;;;19.73;42.97;101105.16;16120770;19;133416;-41
2023/03/21 16:32:55;;;;;;;3.17;0.90;;;;;;;19.65;42.73;101098.91;16111247;19;130763;-41
2023/03/21 16:38:17;;;;;;;2.45;1.05;;;;;;;19.63;42.66;101100.28;16114438;19;131419;-41
2023/03/21 16:43:42;;;;;;;4.65;0.90;;;;;;;19.57;42.59;101087.38;16117866;19;130440;-42
2023/03/21 16:49:04;;;;;;;10.18;1.30;;;;;;;19.56;42.55;101089.31;16119496;19;132295;-42
2023/03/21 16:54:26;;;;;;;3.60;0.90;;;;;;;19.56;42.37;101075.44;16115955;19;129928;-43
2023/03/21 16:59:48;;;;;;;3.08;0.90;;;;;;;19.56;42.46;101074.59;16118179;19;131321;-42
2023/03/21 17:05:10;;;;;;;7.28;1.10;;;;;;;19.58;42.60;101070.47;16114571;19;130151;-43
2023/03/21 17:10:32;;;;;;;4.85;0.95;;;;;;;19.67;42.69;101071.75;16114710;19;130427;-42
2023/03/21 17:15:54;;;;;;;2.90;0.75;;;;;;;19.83;42.20;101072.88;16117017;19;129703;-43
2023/03/21 17:21:19;;;;;;;2.35;0.90;;;;;;;19.99;42.24;101074.00;16115996;19;129581;-42
2023/03/21 17:26:41;;;;;;;3.75;1.20;;;;;;;20.11;42.11;101070.28;16112726;19;129454;-41
2023/03/21 17:32:03;;;;;;;3.90;1.15;;;;;;;20.23;42.20;101048.81;16116581;19;129848;-46
2023/03/21 17:37:25;;;;;;;4.75;1.20;;;;;;;20.35;41.59;101062.63;16109567;19;131850;-41
2023/03/21 17:42:48;;;;;;;3.50;1.20;;;;;;;20.40;41.57;101070.19;16108214;19;130417;-42
2023/03/21 17:48:10;;;;;;;6.72;1.35;;;;;;;20.40;41.45;101067.41;16111247;19;129772;-41
2023/03/21 17:53:32;;;;;;;9.55;1.40;;;;;;;20.37;41.79;101065.13;16111410;19;129667;-42
2023/03/21 17:58:54;;;;;;;2.85;0.85;;;;;;;20.33;41.85;101069.50;16113045;19;134208;-43
2023/03/21 18:04:16;;;;;;;4.70;1.00;;;;;;;20.25;42.01;101071.63;16108232;19;130607;-43
2023/03/21 18:09:41;;;;;;;7.20;1.33;;;;;;;20.16;42.30;101059.28;16108072;19;129602;-44
2023/03/21 18:15:04;;;;;;;3.88;1.10;;;;;;;20.07;42.23;101055.22;16108546;19;130913;-41
2023/03/21 18:20:34;;;;;;;6.40;1.20;;;;;;;20.04;42.74;101062.13;16108929;19;129710;-41
2023/03/21 18:26:16;;;;;;;6.07;1.50;;;;;;;20.01;42.31;101051.53;16110187;19;129058;-42
2023/03/21 18:31:39;;;;;;;11.63;1.83;;;;;;;19.98;42.58;101065.91;16105245;19;133278;-41
2023/03/21 18:37:00;;;;;;;12.90;1.45;;;;;;;20.01;42.67;101053.47;16108698;19;131823;-41
2023/03/21 18:42:25;;;;;;;11.05;1.45;;;;;;;20.08;42.75;101054.13;16105402;19;130176;-45
2023/03/21 18:47:51;;;;;;;7.00;1.60;;;;;;;20.18;43.13;101048.75;16110422;19;129397;-41
2023/03/21 18:53:13;;;;;;;9.27;1.50;;;;;;;20.28;43.25;101050.84;16113613;19;130622;-42
2023/03/21 18:58:35;;;;;;;8.38;1.65;;;;;;;20.37;42.83;101048.47;16111336;19;130384;-44
2023/03/21 19:03:59;;;;;;;12.68;1.50;;;;;;;20.45;42.86;101050.81;16110835;19;130995;-42
2023/03/21 19:09:40;;;;;;;8.27;1.80;;;;;;;20.53;43.20;101055.09;16105342;19;129194;-42
2023/03/21 19:15:23;;;;;;;12.43;1.52;;;;;;;20.60;42.93;101058.53;16107898;19;129824;-42
2023/03/21 19:20:45;;;;;;;11.32;1.77;;;;;;;20.66;43.02;101057.50;16105637;19;130789;-41
2023/03/21 19:26:07;;;;;;;7.72;1.40;;;;;;;20.73;42.92;101057.31;16105293;19;130193;-42
2023/03/21 19:31:29;;;;;;;8.45;1.45;;;;;;;20.75;42.70;101055.97;16105678;19;131082;-46
2023/03/21 19:36:51;;;;;;;14.50;1.65;;;;;;;20.78;42.67;101056.56;16104602;19;130272;-43
2023/03/21 19:42:13;;;;;;;14.50;1.90;;;;;;;20.75;42.80;101057.91;16104950;19;130352;-41
2023/03/21 19:47:38;;;;;;;20.25;2.03;;;;;;;20.71;42.72;101065.91;16116162;19;132073;-44
2023/03/21 19:53:00;;;;;;;15.82;1.80;;;;;;;20.65;42.86;101063.31;16122107;19;129167;-42
2023/03/21 19:58:21;;;;;;;15.85;2.20;;;;;;;20.59;42.86;101063.25;16122894;19;130003;-45
2023/03/21 20:03:43;;;;;;;18.10;2.13;;;;;;;20.53;43.10;101064.28;16121558;19;130357;-48
2023/03/21 20:09:05;;;;;;;9.50;2.13;;;;;;;20.48;43.45;101050.28;16123954;19;130940;-42
2023/03/21 20:14:47;;;;;;;13.75;2.20;;;;;;;20.42;43.73;101045.78;16119353;19;130953;-41
2023/03/21 20:20:12;;;;;;;13.25;2.38;;;;;;;20.38;43.71;101047.38;16118258;19;130986;-42
2023/03/21 20:25:38;;;;;;;12.30;1.97;;;;;;;20.39;43.26;101047.09;16114859;19;129681;-41
2023/03/21 20:31:00;;;;;;;20.70;2.08;;;;;;;20.43;43.55;101055.78;16116938;19;130648;-40
2023/03/21 20:36:23;;;;;;;19.23;2.53;;;;;;;20.45;43.71;101050.81;16112934;19;131595;-41
2023/03/21 20:42:01;;;;;;;20.90;2.38;;;;;;;20.49;43.34;101057.53;16118159;19;129927;-40
2023/03/21 20:47:23;;;;;;;21.38;2.58;;;;;;;20.48;43.63;101053.06;16116349;19;131178;-41
2023/03/21 20:52:45;;;;;;;13.38;2.00;;;;;;;20.48;43.36;101055.84;16108811;19;128989;-41
2023/03/21 20:58:26;;;;;;;12.95;2.28;;;;;;;20.46;43.66;101052.47;16116202;19;130301;-44
2023/03/21 21:04:07;;;;;;;16.63;1.75;;;;;;;20.45;43.72;101053.56;16117830;19;131251;-41
2023/03/21 21:09:30;;;;;;;9.48;1.85;;;;;;;20.43;43.93;101047.47;16114537;19;130301;-44
2023/03/21 21:14:53;;;;;;;20.58;2.60;;;;;;;20.40;43.41;101036.84;16110198;19;131374;-42
2023/03/21 21:20:15;;;;;;;11.77;1.77;;;;;;;20.36;43.05;101035.66;16116868;19;129782;-42
2023/03/21 21:25:37;;;;;;;11.80;2.10;;;;;;;20.31;42.98;101032.84;16116331;19;130160;-42
2023/03/21 21:31:10;;;;;;;14.15;2.33;;;;;;;20.27;43.10;101030.56;16119285;19;132233;-43
2023/03/21 21:36:33;;;;;;;14.70;1.70;;;;;;;20.22;43.23;101033.25;16115847;19;130586;-45
2023/03/21 21:41:54;;;;;;;7.63;1.88;;;;;;;20.23;43.07;101029.38;16116206;19;129655;-42
2023/03/21 21:47:16;;;;;;;7.93;1.73;;;;;;;20.21;42.77;101028.78;16115771;19;129646;-44
2023/03/21 21:52:42;;;;;;;8.95;2.05;;;;;;;20.19;42.82;101025.41;16113954;19;129663;-44
2023/03/21 21:58:07;;;;;;;11.07;1.83;;;;;;;20.15;42.63;101021.47;16114376;19;130955;-44
2023/03/21 22:03:39;;;;;;;5.27;1.30;;;;;;;20.10;42.97;101010.28;16112567;19;130810;-41
2023/03/21 22:09:03;;;;;;;4.65;1.40;;;;;;;20.06;42.80;101001.63;16108280;19;129588;-44
2023/03/21 22:14:25;;;;;;;5.68;1.52;;;;;;;20.01;42.73;101012.63;16112298;19;130937;-42
2023/03/21 22:19:46;;;;;;;8.35;1.73;;;;;;;19.97;42.82;100997.56;16113411;19;129574;-41
2023/03/21 22:25:25;;;;;;;8.07;2.03;;;;;;;19.93;42.47;100988.06;16110343;19;131913;-47
2023/03/21 22:30:47;;;;;;;13.50;2.20;;;;;;;19.89;42.49;100992.44;16110796;19;130116;-45
2023/03/21 22:36:09;;;;;;;4.38;1.52;;;;;;;19.85;42.72;100986.53;16109075;19;130754;-44
2023/03/21 22:41:31;;;;;;;8.50;2.05;;;;;;;19.81;42.87;100988.16;16108749;19;129982;-44
2023/03/21 22:46:53;;;;;;;4.50;1.40;;;;;;;19.79;42.98;100988.41;16109472;19;129492;-44
2023/03/21 22:52:15;;;;;;;4.75;1.83;;;;;;;19.74;42.45;100981.94;16104781;19;130305;-44
2023/03/21 22:57:37;;;;;;;12.73;1.85;;;;;;;19.71;42.46;100985.19;16108248;19;131228;-43
2023/03/21 23:02:58;;;;;;;4.95;1.50;;;;;;;19.66;42.34;100970.16;16110736;19;134914;-44
2023/03/21 23:08:20;;;;;;;5.55;1.35;;;;;;;19.63;42.88;100962.34;16104760;19;130458;-42
2023/03/21 23:13:44;;;;;;;8.32;1.58;;;;;;;19.61;42.54;100958.13;16103536;19;130887;-43
2023/03/21 23:19:09;;;;;;;4.10;1.40;;;;;;;19.57;42.74;100948.63;16106804;19;131690;-44
2023/03/21 23:24:31;;;;;;;3.42;1.33;;;;;;;19.54;42.33;100938.88;16120354;19;131355;-44
2023/03/21 23:29:53;;;;;;;5.50;1.15;;;;;;;19.52;42.75;100935.50;16124421;19;130536;-43
2023/03/21 23:35:15;;;;;;;5.47;1.52;;;;;;;19.50;42.37;100932.16;16120398;19;130575;-43
2023/03/21 23:40:40;;;;;;;5.20;1.42;;;;;;;19.48;42.74;100934.31;16120671;19;129730;-43
2023/03/21 23:46:02;;;;;;;;;;;;;;;19.43;42.25;100928.72;16123214;19;129880;-42
2023/03/21 23:51:24;;;;;;;6.68;2.03;;;;;;;19.43;42.65;100928.72;16120635;19;129859;-43
2023/03/21 23:56:46;;;;;;;3.58;1.40;;;;;;;19.41;42.30;100922.56;16117170;19;130752;-44
